sensor_id;sensor_type;location;lat;lon;timestamp;P1;durP1;ratioP1;P2;durP2;ratioP2
1955;SDS011;978;48.314;11.562;2022-08-19T00:01:34;8.97;;;1.10;;
1955;SDS011;978;48.314;11.562;2022-08-19T00:04:04;8.87;;;1.20;;
1955;SDS011;978;48.314;11.562;2022-08-19T00:06:34;8.70;;;1.10;;
1955;SDS011;978;48.314;11.562;2022-08-19T00:09:05;9.50;;;1.30;;
1955;SDS011;978;48.314;11.562;2022-08-19T00:11:35;8.83;;;1.10;;
1955;SDS011;978;48.314;11.562;2022-08-19T00:14:04;9.00;;;0.93;;
1955;SDS011;978;48.314;11.562;2022-08-19T00:16:34;8.73;;;0.90;;
1955;SDS011;978;48.314;11.562;2022-08-19T00:19:03;8.90;;;1.17;;
1955;SDS011;978;48.314;11.562;2022-08-19T00:21:30;9.57;;;1.33;;
1955;SDS011;978;48.314;11.562;2022-08-19T00:23:58;9.20;;;1.30;;
1955;SDS011;978;48.314;11.562;2022-08-19T00:26:27;9.00;;;1.00;;
1955;SDS011;978;48.314;11.562;2022-08-19T00:28:54;8.90;;;0.83;;
1955;SDS011;978;48.314;11.562;2022-08-19T00:31:21;8.90;;;1.23;;
1955;SDS011;978;48.314;11.562;2022-08-19T00:33:50;8.63;;;1.07;;
1955;SDS011;978;48.314;11.562;2022-08-19T00:36:17;8.60;;;0.80;;
1955;SDS011;978;48.314;11.562;2022-08-19T00:38:43;9.13;;;1.10;;
1955;SDS011;978;48.314;11.562;2022-08-19T00:41:12;8.67;;;1.10;;
1955;SDS011;978;48.314;11.562;2022-08-19T00:43:55;8.60;;;0.80;;
1955;SDS011;978;48.314;11.562;2022-08-19T00:46:23;12.20;;;1.10;;
1955;SDS011;978;48.314;11.562;2022-08-19T00:48:50;9.17;;;1.10;;
1955;SDS011;978;48.314;11.562;2022-08-19T00:51:17;9.00;;;1.33;;
1955;SDS011;978;48.314;11.562;2022-08-19T00:53:44;8.77;;;1.00;;
1955;SDS011;978;48.314;11.562;2022-08-19T00:56:12;8.57;;;0.80;;
1955;SDS011;978;48.314;11.562;2022-08-19T00:58:41;8.77;;;0.90;;
1955;SDS011;978;48.314;11.562;2022-08-19T01:01:10;9.60;;;1.10;;
1955;SDS011;978;48.314;11.562;2022-08-19T01:03:40;8.70;;;0.90;;
1955;SDS011;978;48.314;11.562;2022-08-19T01:06:07;9.00;;;0.90;;
1955;SDS011;978;48.314;11.562;2022-08-19T01:08:37;9.07;;;1.23;;
1955;SDS011;978;48.314;11.562;2022-08-19T01:11:06;8.70;;;0.90;;
1955;SDS011;978;48.314;11.562;2022-08-19T01:13:34;9.60;;;1.07;;
1955;SDS011;978;48.314;11.562;2022-08-19T01:16:07;9.90;;;1.20;;
1955;SDS011;978;48.314;11.562;2022-08-19T01:18:39;9.20;;;1.10;;
1955;SDS011;978;48.314;11.562;2022-08-19T01:21:12;9.23;;;1.20;;
1955;SDS011;978;48.314;11.562;2022-08-19T01:23:45;9.20;;;1.43;;
1955;SDS011;978;48.314;11.562;2022-08-19T01:26:14;9.50;;;1.37;;
1955;SDS011;978;48.314;11.562;2022-08-19T01:28:44;9.40;;;1.40;;
1955;SDS011;978;48.314;11.562;2022-08-19T01:31:15;8.60;;;0.73;;
1955;SDS011;978;48.314;11.562;2022-08-19T01:33:46;8.83;;;0.73;;
1955;SDS011;978;48.314;11.562;2022-08-19T01:36:16;9.33;;;1.13;;
1955;SDS011;978;48.314;11.562;2022-08-19T01:38:51;9.00;;;0.90;;
1955;SDS011;978;48.314;11.562;2022-08-19T01:41:19;8.73;;;1.07;;
1955;SDS011;978;48.314;11.562;2022-08-19T01:43:48;8.70;;;0.90;;
1955;SDS011;978;48.314;11.562;2022-08-19T01:46:16;8.80;;;0.90;;
1955;SDS011;978;48.314;11.562;2022-08-19T01:48:45;8.83;;;0.70;;
1955;SDS011;978;48.314;11.562;2022-08-19T01:51:12;8.80;;;1.30;;
1955;SDS011;978;48.314;11.562;2022-08-19T01:53:41;8.60;;;0.80;;
1955;SDS011;978;48.314;11.562;2022-08-19T01:56:11;8.50;;;0.93;;
1955;SDS011;978;48.314;11.562;2022-08-19T01:58:39;8.83;;;0.70;;
1955;SDS011;978;48.314;11.562;2022-08-19T02:01:13;8.57;;;0.90;;
1955;SDS011;978;48.314;11.562;2022-08-19T02:03:41;8.73;;;1.40;;
1955;SDS011;978;48.314;11.562;2022-08-19T02:06:09;8.53;;;1.00;;
1955;SDS011;978;48.314;11.562;2022-08-19T02:08:38;9.10;;;1.13;;
1955;SDS011;978;48.314;11.562;2022-08-19T02:11:17;8.57;;;0.80;;
1955;SDS011;978;48.314;11.562;2022-08-19T02:13:47;9.00;;;1.10;;
1955;SDS011;978;48.314;11.562;2022-08-19T02:16:16;8.80;;;0.90;;
1955;SDS011;978;48.314;11.562;2022-08-19T02:18:45;8.83;;;1.00;;
1955;SDS011;978;48.314;11.562;2022-08-19T02:21:13;8.97;;;1.07;;
1955;SDS011;978;48.314;11.562;2022-08-19T02:23:42;8.70;;;0.80;;
1955;SDS011;978;48.314;11.562;2022-08-19T02:26:11;9.00;;;1.37;;
1955;SDS011;978;48.314;11.562;2022-08-19T02:28:41;8.80;;;0.90;;
1955;SDS011;978;48.314;11.562;2022-08-19T02:31:10;8.70;;;1.13;;
1955;SDS011;978;48.314;11.562;2022-08-19T02:33:39;8.90;;;0.90;;
1955;SDS011;978;48.314;11.562;2022-08-19T02:36:09;8.60;;;0.70;;
1955;SDS011;978;48.314;11.562;2022-08-19T02:38:37;8.63;;;1.23;;
1955;SDS011;978;48.314;11.562;2022-08-19T02:41:12;9.33;;;1.10;;
1955;SDS011;978;48.314;11.562;2022-08-19T02:43:43;8.90;;;1.10;;
1955;SDS011;978;48.314;11.562;2022-08-19T02:46:12;8.80;;;0.83;;
1955;SDS011;978;48.314;11.562;2022-08-19T02:48:44;9.27;;;0.90;;
1955;SDS011;978;48.314;11.562;2022-08-19T02:51:15;8.50;;;0.80;;
1955;SDS011;978;48.314;11.562;2022-08-19T02:53:45;9.03;;;1.00;;
1955;SDS011;978;48.314;11.562;2022-08-19T02:56:12;8.63;;;0.80;;
1955;SDS011;978;48.314;11.562;2022-08-19T02:58:40;8.70;;;0.93;;
1955;SDS011;978;48.314;11.562;2022-08-19T03:01:18;8.80;;;1.13;;
1955;SDS011;978;48.314;11.562;2022-08-19T03:03:47;8.80;;;0.80;;
1955;SDS011;978;48.314;11.562;2022-08-19T03:06:15;8.87;;;0.97;;
1955;SDS011;978;48.314;11.562;2022-08-19T03:08:45;9.00;;;0.90;;
1955;SDS011;978;48.314;11.562;2022-08-19T03:11:16;8.73;;;0.80;;
1955;SDS011;978;48.314;11.562;2022-08-19T03:13:46;9.03;;;0.93;;
1955;SDS011;978;48.314;11.562;2022-08-19T03:16:20;8.70;;;1.00;;
1955;SDS011;978;48.314;11.562;2022-08-19T03:18:50;8.80;;;0.70;;
1955;SDS011;978;48.314;11.562;2022-08-19T03:21:20;8.60;;;1.00;;
1955;SDS011;978;48.314;11.562;2022-08-19T03:23:53;8.90;;;1.10;;
1955;SDS011;978;48.314;11.562;2022-08-19T03:26:20;8.93;;;0.90;;
1955;SDS011;978;48.314;11.562;2022-08-19T03:28:47;8.87;;;0.80;;
1955;SDS011;978;48.314;11.562;2022-08-19T03:31:18;8.77;;;0.90;;
1955;SDS011;978;48.314;11.562;2022-08-19T03:33:48;9.40;;;1.10;;
1955;SDS011;978;48.314;11.562;2022-08-19T03:36:18;8.70;;;1.07;;
1955;SDS011;978;48.314;11.562;2022-08-19T03:38:49;8.60;;;1.00;;
1955;SDS011;978;48.314;11.562;2022-08-19T03:41:21;8.37;;;0.80;;
1955;SDS011;978;48.314;11.562;2022-08-19T03:43:51;9.20;;;1.43;;
1955;SDS011;978;48.314;11.562;2022-08-19T03:46:22;8.57;;;0.83;;
1955;SDS011;978;48.314;11.562;2022-08-19T03:48:52;9.43;;;1.40;;
1955;SDS011;978;48.314;11.562;2022-08-19T03:51:23;8.60;;;0.70;;
1955;SDS011;978;48.314;11.562;2022-08-19T03:53:52;8.80;;;1.00;;
1955;SDS011;978;48.314;11.562;2022-08-19T03:56:21;9.40;;;1.17;;
1955;SDS011;978;48.314;11.562;2022-08-19T03:58:51;8.90;;;1.33;;
1955;SDS011;978;48.314;11.562;2022-08-19T04:01:21;10.13;;;1.93;;
1955;SDS011;978;48.314;11.562;2022-08-19T04:03:52;8.67;;;0.90;;
1955;SDS011;978;48.314;11.562;2022-08-19T04:06:22;9.00;;;1.27;;
1955;SDS011;978;48.314;11.562;2022-08-19T04:08:52;8.80;;;1.00;;
1955;SDS011;978;48.314;11.562;2022-08-19T04:11:22;8.80;;;1.20;;
1955;SDS011;978;48.314;11.562;2022-08-19T04:13:53;9.07;;;1.03;;
1955;SDS011;978;48.314;11.562;2022-08-19T04:16:24;8.90;;;0.73;;
1955;SDS011;978;48.314;11.562;2022-08-19T04:18:53;9.40;;;1.23;;
1955;SDS011;978;48.314;11.562;2022-08-19T04:21:23;8.70;;;0.90;;
1955;SDS011;978;48.314;11.562;2022-08-19T04:23:53;9.10;;;1.37;;
1955;SDS011;978;48.314;11.562;2022-08-19T04:26:24;8.80;;;0.87;;
1955;SDS011;978;48.314;11.562;2022-08-19T04:28:52;8.70;;;0.70;;
1955;SDS011;978;48.314;11.562;2022-08-19T04:31:22;10.77;;;1.30;;
1955;SDS011;978;48.314;11.562;2022-08-19T04:33:53;8.80;;;1.00;;
1955;SDS011;978;48.314;11.562;2022-08-19T04:36:23;8.77;;;0.73;;
1955;SDS011;978;48.314;11.562;2022-08-19T04:38:54;8.90;;;1.27;;
1955;SDS011;978;48.314;11.562;2022-08-19T04:41:24;8.67;;;1.00;;
1955;SDS011;978;48.314;11.562;2022-08-19T04:44:09;9.07;;;1.20;;
1955;SDS011;978;48.314;11.562;2022-08-19T04:46:38;8.50;;;0.80;;
1955;SDS011;978;48.314;11.562;2022-08-19T04:49:05;9.10;;;1.13;;
1955;SDS011;978;48.314;11.562;2022-08-19T04:51:33;8.90;;;0.70;;
1955;SDS011;978;48.314;11.562;2022-08-19T04:54:01;8.83;;;1.00;;
1955;SDS011;978;48.314;11.562;2022-08-19T04:56:29;8.70;;;0.80;;
1955;SDS011;978;48.314;11.562;2022-08-19T04:58:56;8.67;;;0.80;;
1955;SDS011;978;48.314;11.562;2022-08-19T05:01:25;8.67;;;0.80;;
1955;SDS011;978;48.314;11.562;2022-08-19T05:03:57;8.80;;;0.83;;
1955;SDS011;978;48.314;11.562;2022-08-19T05:06:25;8.73;;;0.93;;
1955;SDS011;978;48.314;11.562;2022-08-19T05:08:54;8.50;;;0.83;;
1955;SDS011;978;48.314;11.562;2022-08-19T05:11:25;9.43;;;1.37;;
1955;SDS011;978;48.314;11.562;2022-08-19T05:13:54;9.40;;;1.20;;
1955;SDS011;978;48.314;11.562;2022-08-19T05:16:25;8.53;;;0.87;;
1955;SDS011;978;48.314;11.562;2022-08-19T05:18:54;8.57;;;0.80;;
1955;SDS011;978;48.314;11.562;2022-08-19T05:21:40;9.43;;;1.40;;
1955;SDS011;978;48.314;11.562;2022-08-19T05:24:26;9.33;;;0.97;;
1955;SDS011;978;48.314;11.562;2022-08-19T05:26:55;8.80;;;1.10;;
1955;SDS011;978;48.314;11.562;2022-08-19T05:29:24;8.70;;;0.97;;
1955;SDS011;978;48.314;11.562;2022-08-19T05:31:54;8.77;;;1.00;;
1955;SDS011;978;48.314;11.562;2022-08-19T05:34:23;9.20;;;1.23;;
1955;SDS011;978;48.314;11.562;2022-08-19T05:36:57;8.90;;;1.10;;
1955;SDS011;978;48.314;11.562;2022-08-19T05:39:27;8.73;;;1.30;;
1955;SDS011;978;48.314;11.562;2022-08-19T05:41:57;8.93;;;1.33;;
1955;SDS011;978;48.314;11.562;2022-08-19T05:44:28;9.20;;;1.00;;
1955;SDS011;978;48.314;11.562;2022-08-19T05:46:58;8.83;;;1.13;;
1955;SDS011;978;48.314;11.562;2022-08-19T05:49:27;9.20;;;1.50;;
1955;SDS011;978;48.314;11.562;2022-08-19T05:51:57;8.80;;;0.90;;
1955;SDS011;978;48.314;11.562;2022-08-19T05:54:26;8.57;;;0.87;;
1955;SDS011;978;48.314;11.562;2022-08-19T05:56:54;8.80;;;0.90;;
1955;SDS011;978;48.314;11.562;2022-08-19T05:59:22;8.70;;;0.90;;
1955;SDS011;978;48.314;11.562;2022-08-19T06:01:52;8.70;;;0.80;;
1955;SDS011;978;48.314;11.562;2022-08-19T06:04:23;8.40;;;0.80;;
1955;SDS011;978;48.314;11.562;2022-08-19T06:06:52;8.90;;;1.30;;
1955;SDS011;978;48.314;11.562;2022-08-19T06:09:29;8.67;;;0.97;;
1955;SDS011;978;48.314;11.562;2022-08-19T06:11:58;9.30;;;1.03;;
1955;SDS011;978;48.314;11.562;2022-08-19T06:14:29;8.80;;;1.17;;
1955;SDS011;978;48.314;11.562;2022-08-19T06:16:59;9.13;;;1.50;;
1955;SDS011;978;48.314;11.562;2022-08-19T06:19:28;8.67;;;0.90;;
1955;SDS011;978;48.314;11.562;2022-08-19T06:21:57;8.70;;;1.23;;
1955;SDS011;978;48.314;11.562;2022-08-19T06:24:29;8.60;;;0.70;;
1955;SDS011;978;48.314;11.562;2022-08-19T06:26:58;8.83;;;1.00;;
1955;SDS011;978;48.314;11.562;2022-08-19T06:29:27;8.63;;;0.87;;
1955;SDS011;978;48.314;11.562;2022-08-19T06:31:56;8.70;;;0.87;;
1955;SDS011;978;48.314;11.562;2022-08-19T06:34:25;8.70;;;0.80;;
1955;SDS011;978;48.314;11.562;2022-08-19T06:36:55;8.67;;;0.70;;
1955;SDS011;978;48.314;11.562;2022-08-19T06:39:29;8.60;;;0.77;;
1955;SDS011;978;48.314;11.562;2022-08-19T06:41:59;8.90;;;1.20;;
1955;SDS011;978;48.314;11.562;2022-08-19T06:44:30;9.00;;;0.80;;
1955;SDS011;978;48.314;11.562;2022-08-19T06:47:02;8.70;;;1.00;;
1955;SDS011;978;48.314;11.562;2022-08-19T06:49:32;8.77;;;0.80;;
1955;SDS011;978;48.314;11.562;2022-08-19T06:52:00;8.57;;;0.70;;
1955;SDS011;978;48.314;11.562;2022-08-19T06:54:34;8.83;;;0.90;;
1955;SDS011;978;48.314;11.562;2022-08-19T06:57:01;9.00;;;1.30;;
1955;SDS011;978;48.314;11.562;2022-08-19T06:59:30;8.77;;;0.97;;
1955;SDS011;978;48.314;11.562;2022-08-19T07:02:03;10.00;;;1.20;;
1955;SDS011;978;48.314;11.562;2022-08-19T07:04:33;8.87;;;0.70;;
1955;SDS011;978;48.314;11.562;2022-08-19T07:07:03;8.87;;;1.33;;
1955;SDS011;978;48.314;11.562;2022-08-19T07:09:34;8.80;;;0.80;;
1955;SDS011;978;48.314;11.562;2022-08-19T07:12:03;8.97;;;0.87;;
1955;SDS011;978;48.314;11.562;2022-08-19T07:14:34;8.93;;;0.90;;
1955;SDS011;978;48.314;11.562;2022-08-19T07:17:03;9.23;;;1.27;;
1955;SDS011;978;48.314;11.562;2022-08-19T07:19:33;8.70;;;0.80;;
1955;SDS011;978;48.314;11.562;2022-08-19T07:22:02;9.10;;;1.17;;
1955;SDS011;978;48.314;11.562;2022-08-19T07:24:33;8.60;;;0.90;;
1955;SDS011;978;48.314;11.562;2022-08-19T07:27:03;9.70;;;1.17;;
1955;SDS011;978;48.314;11.562;2022-08-19T07:29:34;8.93;;;1.00;;
1955;SDS011;978;48.314;11.562;2022-08-19T07:32:03;9.07;;;1.30;;
1955;SDS011;978;48.314;11.562;2022-08-19T07:34:32;8.90;;;0.90;;
1955;SDS011;978;48.314;11.562;2022-08-19T07:37:04;8.93;;;0.93;;
1955;SDS011;978;48.314;11.562;2022-08-19T07:39:35;8.97;;;1.13;;
1955;SDS011;978;48.314;11.562;2022-08-19T07:42:05;9.43;;;1.40;;
1955;SDS011;978;48.314;11.562;2022-08-19T07:44:34;9.07;;;1.00;;
1955;SDS011;978;48.314;11.562;2022-08-19T07:47:03;9.30;;;0.93;;
1955;SDS011;978;48.314;11.562;2022-08-19T07:49:33;9.10;;;0.80;;
1955;SDS011;978;48.314;11.562;2022-08-19T07:52:04;9.43;;;1.20;;
1955;SDS011;978;48.314;11.562;2022-08-19T07:54:35;9.13;;;1.13;;
1955;SDS011;978;48.314;11.562;2022-08-19T07:57:06;9.17;;;0.90;;
1955;SDS011;978;48.314;11.562;2022-08-19T07:59:34;9.37;;;1.20;;
1955;SDS011;978;48.314;11.562;2022-08-19T08:02:03;9.20;;;1.13;;
1955;SDS011;978;48.314;11.562;2022-08-19T08:04:32;9.07;;;1.10;;
1955;SDS011;978;48.314;11.562;2022-08-19T08:07:16;9.30;;;1.20;;
1955;SDS011;978;48.314;11.562;2022-08-19T08:10:04;9.77;;;1.90;;
1955;SDS011;978;48.314;11.562;2022-08-19T08:12:34;9.13;;;1.00;;
1955;SDS011;978;48.314;11.562;2022-08-19T08:15:07;9.40;;;1.10;;
1955;SDS011;978;48.314;11.562;2022-08-19T08:17:36;9.63;;;1.20;;
1955;SDS011;978;48.314;11.562;2022-08-19T08:20:05;9.50;;;1.10;;
1955;SDS011;978;48.314;11.562;2022-08-19T08:22:34;9.77;;;1.40;;
1955;SDS011;978;48.314;11.562;2022-08-19T08:25:20;9.57;;;1.30;;
1955;SDS011;978;48.314;11.562;2022-08-19T08:27:49;9.17;;;1.20;;
1955;SDS011;978;48.314;11.562;2022-08-19T08:30:18;9.83;;;1.17;;
1955;SDS011;978;48.314;11.562;2022-08-19T08:32:46;9.57;;;1.37;;
1955;SDS011;978;48.314;11.562;2022-08-19T08:35:13;9.80;;;1.33;;
1955;SDS011;978;48.314;11.562;2022-08-19T08:37:42;9.60;;;1.33;;
1955;SDS011;978;48.314;11.562;2022-08-19T08:40:20;9.50;;;1.00;;
1955;SDS011;978;48.314;11.562;2022-08-19T08:42:54;9.93;;;1.50;;
1955;SDS011;978;48.314;11.562;2022-08-19T08:45:27;10.03;;;1.30;;
1955;SDS011;978;48.314;11.562;2022-08-19T08:48:00;9.80;;;1.23;;
1955;SDS011;978;48.314;11.562;2022-08-19T08:50:32;10.50;;;1.60;;
1955;SDS011;978;48.314;11.562;2022-08-19T08:53:06;9.60;;;1.33;;
1955;SDS011;978;48.314;11.562;2022-08-19T08:55:37;10.20;;;1.30;;
1955;SDS011;978;48.314;11.562;2022-08-19T08:58:07;9.90;;;1.50;;
1955;SDS011;978;48.314;11.562;2022-08-19T09:00:40;10.00;;;1.43;;
1955;SDS011;978;48.314;11.562;2022-08-19T09:03:13;11.37;;;1.40;;
1955;SDS011;978;48.314;11.562;2022-08-19T09:05:45;9.90;;;1.40;;
1955;SDS011;978;48.314;11.562;2022-08-19T09:11:08;9.87;;;1.60;;
1955;SDS011;978;48.314;11.562;2022-08-19T09:13:41;10.50;;;1.50;;
1955;SDS011;978;48.314;11.562;2022-08-19T09:16:18;10.13;;;1.90;;
1955;SDS011;978;48.314;11.562;2022-08-19T09:18:50;9.90;;;1.40;;
1955;SDS011;978;48.314;11.562;2022-08-19T09:21:18;10.43;;;1.77;;
1955;SDS011;978;48.314;11.562;2022-08-19T09:23:45;10.33;;;2.03;;
1955;SDS011;978;48.314;11.562;2022-08-19T09:26:14;10.07;;;1.63;;
1955;SDS011;978;48.314;11.562;2022-08-19T09:28:42;11.73;;;1.90;;
1955;SDS011;978;48.314;11.562;2022-08-19T09:31:10;10.27;;;1.60;;
1955;SDS011;978;48.314;11.562;2022-08-19T09:33:38;11.43;;;2.63;;
1955;SDS011;978;48.314;11.562;2022-08-19T09:36:09;10.80;;;1.80;;
1955;SDS011;978;48.314;11.562;2022-08-19T09:38:39;10.33;;;1.60;;
1955;SDS011;978;48.314;11.562;2022-08-19T09:41:07;10.20;;;1.70;;
1955;SDS011;978;48.314;11.562;2022-08-19T09:43:39;10.37;;;1.70;;
1955;SDS011;978;48.314;11.562;2022-08-19T09:46:07;10.40;;;2.10;;
1955;SDS011;978;48.314;11.562;2022-08-19T09:48:36;11.13;;;1.87;;
1955;SDS011;978;48.314;11.562;2022-08-19T09:51:04;11.03;;;2.00;;
1955;SDS011;978;48.314;11.562;2022-08-19T09:53:34;10.93;;;1.80;;
1955;SDS011;978;48.314;11.562;2022-08-19T09:56:01;10.90;;;2.03;;
1955;SDS011;978;48.314;11.562;2022-08-19T09:58:30;11.30;;;2.10;;
1955;SDS011;978;48.314;11.562;2022-08-19T10:01:01;10.73;;;1.87;;
1955;SDS011;978;48.314;11.562;2022-08-19T10:03:31;10.67;;;1.80;;
1955;SDS011;978;48.314;11.562;2022-08-19T10:06:00;10.20;;;1.77;;
1955;SDS011;978;48.314;11.562;2022-08-19T10:08:29;11.03;;;2.20;;
1955;SDS011;978;48.314;11.562;2022-08-19T10:10:58;10.33;;;1.70;;
1955;SDS011;978;48.314;11.562;2022-08-19T10:13:27;10.50;;;1.70;;
1955;SDS011;978;48.314;11.562;2022-08-19T10:15:56;10.63;;;1.60;;
1955;SDS011;978;48.314;11.562;2022-08-19T10:18:33;11.40;;;2.27;;
1955;SDS011;978;48.314;11.562;2022-08-19T10:21:07;10.80;;;1.83;;
1955;SDS011;978;48.314;11.562;2022-08-19T10:23:39;10.83;;;1.60;;
1955;SDS011;978;48.314;11.562;2022-08-19T10:26:08;10.90;;;1.90;;
1955;SDS011;978;48.314;11.562;2022-08-19T10:28:36;11.80;;;2.17;;
1955;SDS011;978;48.314;11.562;2022-08-19T10:31:06;10.60;;;1.60;;
1955;SDS011;978;48.314;11.562;2022-08-19T10:33:42;10.73;;;1.63;;
1955;SDS011;978;48.314;11.562;2022-08-19T10:36:11;11.03;;;1.90;;
1955;SDS011;978;48.314;11.562;2022-08-19T10:38:43;10.90;;;1.77;;
1955;SDS011;978;48.314;11.562;2022-08-19T10:41:11;11.10;;;1.97;;
1955;SDS011;978;48.314;11.562;2022-08-19T10:43:41;10.60;;;1.67;;
1955;SDS011;978;48.314;11.562;2022-08-19T10:46:10;11.33;;;1.50;;
1955;SDS011;978;48.314;11.562;2022-08-19T10:48:44;11.60;;;2.50;;
1955;SDS011;978;48.314;11.562;2022-08-19T10:51:13;11.33;;;1.70;;
1955;SDS011;978;48.314;11.562;2022-08-19T10:53:57;10.93;;;1.70;;
1955;SDS011;978;48.314;11.562;2022-08-19T10:56:25;11.47;;;2.43;;
1955;SDS011;978;48.314;11.562;2022-08-19T10:59:10;11.57;;;1.90;;
1955;SDS011;978;48.314;11.562;2022-08-19T11:01:40;11.50;;;2.60;;
1955;SDS011;978;48.314;11.562;2022-08-19T11:04:14;11.00;;;2.30;;
1955;SDS011;978;48.314;11.562;2022-08-19T11:06:44;11.53;;;2.17;;
1955;SDS011;978;48.314;11.562;2022-08-19T11:09:14;11.33;;;1.77;;
1955;SDS011;978;48.314;11.562;2022-08-19T11:11:43;10.90;;;2.20;;
1955;SDS011;978;48.314;11.562;2022-08-19T11:14:11;11.23;;;1.90;;
1955;SDS011;978;48.314;11.562;2022-08-19T11:16:41;11.00;;;1.50;;
1955;SDS011;978;48.314;11.562;2022-08-19T11:19:10;10.83;;;2.00;;
1955;SDS011;978;48.314;11.562;2022-08-19T11:21:43;11.60;;;2.20;;
1955;SDS011;978;48.314;11.562;2022-08-19T11:24:12;13.63;;;2.87;;
1955;SDS011;978;48.314;11.562;2022-08-19T11:26:42;11.60;;;2.13;;
1955;SDS011;978;48.314;11.562;2022-08-19T11:29:11;11.47;;;2.43;;
1955;SDS011;978;48.314;11.562;2022-08-19T11:31:43;11.90;;;2.50;;
1955;SDS011;978;48.314;11.562;2022-08-19T11:34:13;12.07;;;2.40;;
1955;SDS011;978;48.314;11.562;2022-08-19T11:36:44;11.10;;;2.07;;
1955;SDS011;978;48.314;11.562;2022-08-19T11:39:13;11.00;;;1.70;;
1955;SDS011;978;48.314;11.562;2022-08-19T11:41:44;12.03;;;2.23;;
1955;SDS011;978;48.314;11.562;2022-08-19T11:44:19;11.60;;;2.20;;
1955;SDS011;978;48.314;11.562;2022-08-19T11:46:47;11.60;;;2.07;;
1955;SDS011;978;48.314;11.562;2022-08-19T11:49:16;11.80;;;2.00;;
1955;SDS011;978;48.314;11.562;2022-08-19T11:51:47;11.30;;;2.13;;
1955;SDS011;978;48.314;11.562;2022-08-19T11:54:16;11.30;;;2.00;;
1955;SDS011;978;48.314;11.562;2022-08-19T11:56:45;12.10;;;2.17;;
1955;SDS011;978;48.314;11.562;2022-08-19T11:59:14;11.13;;;2.00;;
1955;SDS011;978;48.314;11.562;2022-08-19T12:01:41;11.50;;;1.97;;
1955;SDS011;978;48.314;11.562;2022-08-19T12:04:08;11.53;;;2.43;;
1955;SDS011;978;48.314;11.562;2022-08-19T12:06:38;12.27;;;2.50;;
1955;SDS011;978;48.314;11.562;2022-08-19T12:09:07;11.30;;;2.13;;
1955;SDS011;978;48.314;11.562;2022-08-19T12:11:39;11.23;;;2.00;;
1955;SDS011;978;48.314;11.562;2022-08-19T12:14:08;11.20;;;1.90;;
1955;SDS011;978;48.314;11.562;2022-08-19T12:16:38;11.80;;;2.33;;
1955;SDS011;978;48.314;11.562;2022-08-19T12:19:06;11.93;;;2.07;;
1955;SDS011;978;48.314;11.562;2022-08-19T12:21:34;12.00;;;2.17;;
1955;SDS011;978;48.314;11.562;2022-08-19T12:24:03;12.70;;;2.60;;
1955;SDS011;978;48.314;11.562;2022-08-19T12:26:31;14.20;;;3.10;;
1955;SDS011;978;48.314;11.562;2022-08-19T12:28:58;11.80;;;2.40;;
1955;SDS011;978;48.314;11.562;2022-08-19T12:31:25;12.50;;;2.67;;
1955;SDS011;978;48.314;11.562;2022-08-19T12:33:53;11.60;;;2.23;;
1955;SDS011;978;48.314;11.562;2022-08-19T12:36:21;11.93;;;2.17;;
1955;SDS011;978;48.314;11.562;2022-08-19T12:38:49;11.80;;;2.30;;
1955;SDS011;978;48.314;11.562;2022-08-19T12:41:20;11.70;;;2.00;;
1955;SDS011;978;48.314;11.562;2022-08-19T12:43:48;11.80;;;2.30;;
1955;SDS011;978;48.314;11.562;2022-08-19T12:46:16;12.17;;;2.43;;
1955;SDS011;978;48.314;11.562;2022-08-19T12:48:46;11.47;;;1.93;;
1955;SDS011;978;48.314;11.562;2022-08-19T12:51:15;11.13;;;1.90;;
1955;SDS011;978;48.314;11.562;2022-08-19T12:53:45;11.27;;;2.10;;
1955;SDS011;978;48.314;11.562;2022-08-19T12:56:14;11.50;;;2.20;;
1955;SDS011;978;48.314;11.562;2022-08-19T12:58:42;11.73;;;2.20;;
1955;SDS011;978;48.314;11.562;2022-08-19T13:01:11;12.30;;;2.60;;
1955;SDS011;978;48.314;11.562;2022-08-19T13:03:40;11.63;;;2.10;;
1955;SDS011;978;48.314;11.562;2022-08-19T13:06:08;11.77;;;2.00;;
1955;SDS011;978;48.314;11.562;2022-08-19T13:08:35;11.20;;;1.93;;
1955;SDS011;978;48.314;11.562;2022-08-19T13:11:07;11.27;;;2.17;;
1955;SDS011;978;48.314;11.562;2022-08-19T13:13:38;11.30;;;1.80;;
1955;SDS011;978;48.314;11.562;2022-08-19T13:16:07;11.40;;;2.10;;
1955;SDS011;978;48.314;11.562;2022-08-19T13:18:34;11.63;;;1.93;;
1955;SDS011;978;48.314;11.562;2022-08-19T13:21:02;11.77;;;2.27;;
1955;SDS011;978;48.314;11.562;2022-08-19T13:23:30;11.40;;;2.03;;
1955;SDS011;978;48.314;11.562;2022-08-19T13:25:57;11.10;;;1.90;;
1955;SDS011;978;48.314;11.562;2022-08-19T13:28:24;11.70;;;1.90;;
1955;SDS011;978;48.314;11.562;2022-08-19T13:30:52;11.20;;;2.10;;
1955;SDS011;978;48.314;11.562;2022-08-19T13:33:38;11.07;;;2.17;;
1955;SDS011;978;48.314;11.562;2022-08-19T13:36:05;10.80;;;1.80;;
1955;SDS011;978;48.314;11.562;2022-08-19T13:38:32;11.97;;;2.07;;
1955;SDS011;978;48.314;11.562;2022-08-19T13:41:03;11.10;;;2.10;;
1955;SDS011;978;48.314;11.562;2022-08-19T13:43:32;11.33;;;1.57;;
1955;SDS011;978;48.314;11.562;2022-08-19T13:45:59;10.87;;;1.73;;
1955;SDS011;978;48.314;11.562;2022-08-19T13:48:34;11.63;;;2.10;;
1955;SDS011;978;48.314;11.562;2022-08-19T13:51:04;11.57;;;1.90;;
1955;SDS011;978;48.314;11.562;2022-08-19T13:53:31;11.07;;;1.70;;
1955;SDS011;978;48.314;11.562;2022-08-19T13:55:58;10.87;;;1.67;;
1955;SDS011;978;48.314;11.562;2022-08-19T13:58:26;11.47;;;2.17;;
1955;SDS011;978;48.314;11.562;2022-08-19T14:00:54;10.83;;;1.70;;
1955;SDS011;978;48.314;11.562;2022-08-19T14:03:25;11.43;;;2.00;;
1955;SDS011;978;48.314;11.562;2022-08-19T14:05:53;11.17;;;1.83;;
1955;SDS011;978;48.314;11.562;2022-08-19T14:08:24;10.63;;;1.90;;
1955;SDS011;978;48.314;11.562;2022-08-19T14:10:53;10.80;;;2.00;;
1955;SDS011;978;48.314;11.562;2022-08-19T14:13:22;10.80;;;1.70;;
1955;SDS011;978;48.314;11.562;2022-08-19T14:15:51;11.27;;;2.10;;
1955;SDS011;978;48.314;11.562;2022-08-19T14:18:19;11.10;;;1.70;;
1955;SDS011;978;48.314;11.562;2022-08-19T14:20:46;11.13;;;1.87;;
1955;SDS011;978;48.314;11.562;2022-08-19T14:23:15;10.87;;;1.70;;
1955;SDS011;978;48.314;11.562;2022-08-19T14:25:43;10.37;;;1.40;;
1955;SDS011;978;48.314;11.562;2022-08-19T14:28:11;10.73;;;1.60;;
1955;SDS011;978;48.314;11.562;2022-08-19T14:30:38;11.10;;;2.03;;
1955;SDS011;978;48.314;11.562;2022-08-19T14:33:05;10.70;;;1.60;;
1955;SDS011;978;48.314;11.562;2022-08-19T14:35:33;11.17;;;2.03;;
1955;SDS011;978;48.314;11.562;2022-08-19T14:38:00;11.90;;;2.70;;
1955;SDS011;978;48.314;11.562;2022-08-19T14:40:29;10.70;;;1.47;;
1955;SDS011;978;48.314;11.562;2022-08-19T14:42:59;11.57;;;1.90;;
1955;SDS011;978;48.314;11.562;2022-08-19T14:45:29;11.17;;;2.03;;
1955;SDS011;978;48.314;11.562;2022-08-19T14:47:57;10.53;;;1.60;;
1955;SDS011;978;48.314;11.562;2022-08-19T14:50:26;10.90;;;1.90;;
1955;SDS011;978;48.314;11.562;2022-08-19T14:52:57;10.93;;;1.70;;
1955;SDS011;978;48.314;11.562;2022-08-19T14:55:27;10.60;;;1.73;;
1955;SDS011;978;48.314;11.562;2022-08-19T14:57:55;10.33;;;1.67;;
1955;SDS011;978;48.314;11.562;2022-08-19T15:00:26;10.67;;;1.93;;
1955;SDS011;978;48.314;11.562;2022-08-19T15:02:54;10.50;;;1.80;;
1955;SDS011;978;48.314;11.562;2022-08-19T15:05:22;10.27;;;1.50;;
1955;SDS011;978;48.314;11.562;2022-08-19T15:07:49;11.00;;;1.60;;
1955;SDS011;978;48.314;11.562;2022-08-19T15:10:19;10.40;;;1.40;;
1955;SDS011;978;48.314;11.562;2022-08-19T15:12:49;10.43;;;1.27;;
1955;SDS011;978;48.314;11.562;2022-08-19T15:15:19;11.67;;;2.23;;
1955;SDS011;978;48.314;11.562;2022-08-19T15:17:50;10.27;;;1.70;;
1955;SDS011;978;48.314;11.562;2022-08-19T15:20:18;10.53;;;1.50;;
1955;SDS011;978;48.314;11.562;2022-08-19T15:22:48;10.83;;;1.83;;
1955;SDS011;978;48.314;11.562;2022-08-19T15:25:16;10.53;;;1.40;;
1955;SDS011;978;48.314;11.562;2022-08-19T15:27:45;10.63;;;1.97;;
1955;SDS011;978;48.314;11.562;2022-08-19T15:30:12;10.67;;;1.60;;